Date,TemperatureHighF,TemperatureAvgF,TemperatureLowF,DewpointHighF,DewpointAvgF,DewpointLowF,HumidityHigh,HumidityAvg,HumidityLow,PressureMaxIn,PressureMinIn,WindSpeedMaxMPH,WindSpeedAvgMPH,GustSpeedMaxMPH,PrecipitationSumIn
2014-1-1,52.8,43.7,35.1,46.4,40.3,34.3,98,89,66,30.41,30.14,4,0,5,0.04
2014-1-2,57.5,50.1,45.2,57.5,49.7,44.4,100,99,97,30.14,29.60,8,1,15,0.72
2014-1-3,50.9,35.4,25.3,50.0,22.9,12.4,97,62,40,30.46,29.66,25,4,28,0.00
2014-1-4,48.9,37.2,25.4,44.9,31.1,15.4,95,79,65,30.48,30.23,9,1,9,0.00
2014-1-5,63.2,54.8,43.0,62.9,54.3,41.6,100,98,95,30.23,29.86,8,0,8,0.15
2014-1-6,61.6,50.2,30.2,61.5,44.3,13.5,100,82,42,30.18,29.74,16,3,16,0.03
2014-1-7,30.0,22.9,16.2,14.8,4.2,-3.0,80,46,29,30.55,30.18,18,3,19,0.00
2014-1-8,44.0,29.8,18.7,26.9,18.3,7.1,88,65,26,30.64,30.52,5,0,5,0.00
2014-1-9,54.6,42.8,29.9,46.8,34.7,22.5,86,73,60,30.55,30.42,6,1,6,0.00
2014-1-10,69.5,60.8,46.7,63.7,57.4,45.3,99,89,74,30.42,30.10,5,1,11,0.00
2014-1-11,66.3,62.1,57.9,65.6,61.7,57.6,100,99,97,30.10,29.67,14,3,14,0.50
2014-1-12,59.0,51.1,38.3,58.0,41.7,33.3,99,74,39,30.21,29.72,11,2,13,0.01
2014-1-13,60.5,47.5,33.3,52.0,42.3,32.8,100,84,52,30.23,29.98,3,0,5,0.00
2014-1-14,59.5,53.8,41.7,59.2,53.2,41.3,99,98,94,30.01,29.80,16,1,16,0.32
2014-1-15,58.1,45.1,33.5,53.9,42.5,33.2,100,92,63,30.00,29.86,8,0,8,0.01
2014-1-16,45.2,39.0,29.6,44.5,35.1,28.8,99,86,65,30.09,29.87,13,2,16,0.00
2014-1-17,54.7,44.8,29.0,51.0,37.8,25.7,98,77,51,30.12,29.86,10,2,10,0.00
2014-1-18,54.9,37.9,26.4,49.6,24.4,16.9,92,60,38,30.11,29.86,19,2,20,0.03
2014-1-19,52.8,43.9,27.4,41.5,32.5,21.6,87,65,48,30.09,29.95,14,2,14,0.00
2014-1-20,57.5,48.9,39.5,47.6,40.2,31.8,89,73,52,30.00,29.84,8,2,13,0.00
2014-1-21,56.8,50.2,39.2,50.4,44.3,33.9,91,80,63,29.88,29.52,15,3,25,0.00
2014-1-22,39.0,31.6,22.4,33.7,21.8,15.2,87,69,41,30.14,29.75,21,2,24,0.00
2014-1-23,41.0,30.3,20.9,24.2,18.5,13.0,94,65,33,30.35,30.13,9,1,14,0.00
2014-1-24,30.5,23.8,13.3,25.2,6.7,-1.7,85,51,27,30.59,30.33,20,3,25,0.00
2014-1-25,48.3,34.6,12.6,40.7,24.1,6.9,88,67,42,30.36,29.74,24,3,24,0.00
2014-1-26,51.0,43.5,28.4,42.7,31.7,21.8,84,64,43,30.04,29.90,8,2,9,0.00
2014-1-27,57.7,51.2,43.3,50.1,44.3,36.5,93,78,59,29.97,29.84,10,2,10,0.00
2014-1-28,50.2,33.5,24.9,48.3,23.7,14.4,96,70,42,30.26,29.97,11,2,11,0.01
2014-1-29,27.2,24.4,20.0,24.2,20.4,17.5,95,85,75,30.38,30.10,13,2,14,0.00
2014-1-30,32.9,28.2,23.5,30.7,22.2,15.2,96,78,61,30.39,30.19,9,1,9,0.00
2014-1-31,53.7,38.4,31.1,44.1,34.8,30.3,97,88,58,30.25,30.15,8,1,8,0.34
2014-2-1,53.0,41.3,30.0,46.9,38.4,29.3,98,90,65,30.25,30.10,5,0,6,0.06
2014-2-2,64.5,50.9,43.2,55.8,48.5,42.7,99,92,72,30.17,30.06,5,0,5,0.00
2014-2-3,63.0,55.6,48.0,61.4,54.4,45.3,100,96,85,30.18,29.96,13,2,13,0.00
2014-2-4,49.5,44.5,42.4,45.5,41.9,39.1,98,91,84,30.32,30.06,9,1,9,0.01
2014-2-5,61.3,52.5,43.3,61.3,51.8,42.9,100,98,78,30.06,29.83,15,2,15,0.13
2014-2-6,51.9,45.3,38.3,45.3,37.3,31.6,86,74,62,30.26,30.01,13,2,13,0.00
2014-2-7,51.1,39.6,31.0,40.2,35.0,30.2,97,85,56,30.35,30.24,8,1,8,0.01
2014-2-8,46.7,38.4,31.2,42.2,36.1,30.4,98,92,75,30.28,30.11,10,0,10,0.35
2014-2-9,57.2,42.6,30.1,47.8,39.3,29.5,99,89,57,30.21,30.02,5,0,5,0.00
2014-2-10,58.6,47.1,37.9,45.4,40.8,34.6,98,80,54,30.20,30.03,11,1,14,0.00
2014-2-11,41.9,33.3,28.2,35.4,31.7,26.6,97,94,75,30.35,30.16,8,2,9,0.53
2014-2-12,34.3,31.1,28.0,34.0,30.2,26.2,99,96,93,30.33,29.69,15,2,15,0.00
2014-2-13,37.7,35.0,33.2,35.9,34.1,32.7,99,97,92,29.77,29.52,15,3,16,0.08
2014-2-14,51.9,43.9,32.7,46.0,39.4,31.0,96,85,65,29.90,29.77,11,2,13,0.00
2014-2-15,53.2,47.7,30.7,48.9,40.2,24.1,98,77,43,30.07,29.56,23,4,23,0.25
2014-2-16,52.2,39.6,28.8,40.1,31.0,20.1,96,74,37,30.17,30.05,8,1,8,0.00
2014-2-17,51.0,41.7,32.5,37.4,34.2,30.1,98,76,50,30.35,30.14,8,2,13,0.00
2014-2-18,69.7,50.3,38.6,53.2,44.5,36.1,97,82,48,30.23,30.13,13,1,14,0.00
2014-2-19,64.7,56.6,42.4,57.8,51.5,41.3,99,84,67,30.14,29.97,15,3,15,0.00
2014-2-20,70.4,59.5,50.1,65.5,56.5,48.0,99,90,75,30.20,30.08,6,1,8,0.00
2014-2-21,68.3,60.3,52.9,65.1,59.2,52.6,99,96,89,30.08,29.84,15,2,19,0.05
2014-2-22,67.7,52.7,42.8,52.5,43.1,32.7,100,74,30,30.16,30.02,8,1,8,0.01
2014-2-23,67.4,51.2,38.5,54.5,45.3,37.4,97,82,49,30.11,29.93,6,0,6,0.00
2014-2-24,66.5,54.0,42.0,52.8,46.9,36.8,98,80,35,30.12,29.90,14,1,14,0.00
2014-2-25,67.2,52.6,39.9,56.1,47.0,36.3,97,82,63,30.11,29.87,13,1,13,0.00
2014-2-26,45.4,40.2,36.4,40.9,37.2,34.3,98,90,71,29.95,29.78,6,1,9,0.42
2014-2-27,51.7,41.7,31.2,44.5,37.7,30.6,99,87,61,29.96,29.81,11,1,11,0.00
2014-2-28,52.7,41.9,32.0,37.2,32.6,24.7,99,71,52,30.26,29.96,11,2,11,0.00
2014-3-1,55.7,44.7,36.5,48.0,39.4,29.8,94,82,68,30.32,30.21,10,1,11,0.00
2014-3-2,68.7,55.1,43.3,50.5,45.6,39.0,94,73,41,30.24,29.99,9,1,10,0.00
2014-3-3,63.6,51.2,31.7,57.4,47.4,29.1,93,87,77,30.16,29.84,15,3,15,0.01
2014-3-4,34.7,30.3,24.4,30.2,25.8,19.8,90,83,78,30.27,30.15,13,2,15,0.00
2014-3-5,40.2,36.8,32.9,39.4,34.6,29.2,97,92,83,30.22,30.10,9,1,9,0.14
2014-3-6,42.7,39.2,34.7,42.2,36.9,30.8,98,92,81,30.24,29.76,11,3,15,1.56
2014-3-7,51.5,45.1,38.3,49.1,43.9,36.4,99,96,91,29.95,29.67,15,5,21,0.39
2014-3-8,65.2,48.6,33.4,50.2,42.5,32.1,96,81,49,30.12,29.94,14,3,14,0.00
2014-3-9,71.2,57.2,46.1,49.8,46.8,43.4,96,71,38,30.09,30.00,5,1,11,0.00
2014-3-10,74.1,56.0,42.1,51.6,45.3,34.6,99,74,24,30.02,29.85,11,2,11,0.00
2014-3-11,70.7,58.4,45.9,55.3,51.5,44.6,98,79,53,29.86,29.72,14,2,14,0.00
2014-3-12,64.3,59.1,54.4,58.5,55.2,45.8,96,87,71,29.74,29.40,16,4,21,0.16
2014-3-13,54.3,44.5,30.2,45.7,24.7,16.4,83,48,27,30.25,29.58,24,4,24,0.00
2014-3-14,57.7,43.5,25.4,50.7,33.1,22.3,94,71,30,30.39,30.16,8,1,8,0.00
2014-3-15,70.2,59.2,52.8,51.1,48.3,41.0,91,69,37,30.17,29.99,14,3,14,0.00
2014-3-16,58.9,52.6,47.1,56.6,50.6,44.9,99,93,78,30.05,29.73,4,1,10,0.51
2014-3-17,56.4,43.6,39.2,56.1,43.1,38.6,99,98,97,29.89,29.70,10,1,10,0.39
2014-3-18,46.4,39.9,35.8,42.3,38.5,35.3,99,95,86,30.10,29.80,18,4,19,0.00
2014-3-19,57.0,46.4,40.6,51.1,44.5,40.1,99,93,79,30.15,30.01,11,2,11,0.00
2014-3-20,70.0,54.0,40.8,55.2,48.5,40.2,99,84,47,30.05,29.94,10,2,10,0.00
2014-3-21,68.8,53.4,43.3,47.5,40.6,31.1,99,67,28,30.17,30.01,10,1,10,0.00
2014-3-22,73.2,58.4,44.9,64.1,53.5,43.4,99,86,53,30.12,29.97,11,1,11,1.44
2014-3-23,66.5,57.2,45.2,64.3,54.5,41.3,100,91,68,30.09,29.85,16,1,16,0.00
2014-3-24,55.1,43.6,36.6,41.7,35.7,29.3,97,76,38,30.25,30.09,10,1,10,0.00
2014-3-25,58.4,44.8,36.9,51.9,42.0,32.9,98,90,73,30.11,29.70,19,2,20,0.29
2014-3-26,49.6,39.8,31.5,35.0,25.1,17.5,88,59,31,30.35,29.95,19,4,20,0.00
2014-3-27,59.9,44.1,28.0,42.9,34.0,26.4,96,72,37,30.51,30.33,9,1,9,0.00
2014-3-28,70.3,58.3,45.8,61.3,56.0,42.4,99,92,72,30.33,30.11,9,1,9,0.89
2014-3-29,65.9,61.8,59.3,65.7,61.3,59.0,100,98,96,30.13,29.65,13,2,13,1.81
2014-3-30,60.5,54.1,45.9,59.8,42.4,32.4,98,66,46,29.98,29.62,21,4,23,0.00
2014-3-31,72.0,55.8,41.2,50.2,34.5,27.8,92,49,21,30.11,29.98,14,2,16,0.00
2014-4-1,73.4,57.1,40.4,56.3,49.2,39.6,99,78,41,30.17,30.06,10,2,10,0.00
2014-4-2,76.0,62.5,50.3,59.5,54.4,48.7,97,76,53,30.14,30.05,13,2,13,0.00
2014-4-3,73.8,63.8,54.9,61.3,57.8,52.0,95,82,61,30.10,29.97,9,3,13,0.00
2014-4-4,70.4,64.6,59.9,63.4,61.0,58.9,98,88,75,29.98,29.84,16,4,16,0.00
2014-4-5,79.6,66.8,58.4,61.8,59.2,52.7,95,79,41,29.99,29.87,14,2,15,0.00
2014-4-6,62.5,57.5,53.6,57.0,50.8,41.9,95,79,62,30.10,29.99,11,2,11,0.00
2014-4-7,72.8,63.6,56.4,68.7,61.2,51.4,98,92,82,30.02,29.75,11,2,11,0.15
2014-4-8,70.8,63.9,57.1,66.2,62.6,56.2,99,96,83,29.75,29.58,10,2,11,0.10
2014-4-9,68.5,59.4,50.4,56.3,50.7,42.3,98,76,40,30.11,29.61,14,2,16,0.26
2014-4-10,74.7,59.9,44.5,60.2,51.3,43.4,98,77,40,30.28,30.11,5,0,6,0.00
2014-4-11,76.8,65.3,56.9,61.5,57.8,55.0,97,78,49,30.28,30.14,0,0,0,0.00
2014-4-12,76.3,65.6,54.9,63.4,60.2,53.9,99,84,59,30.24,30.15,0,0,0,0.00
2014-4-13,79.3,68.5,57.0,64.2,61.5,56.1,99,80,55,30.23,30.12,0,0,0,0.00
2014-4-14,77.8,67.7,61.9,68.3,64.7,60.4,98,90,71,30.12,29.88,8,1,8,0.19
2014-4-15,70.3,66.1,47.1,68.0,64.8,45.6,99,96,88,29.89,29.65,20,3,25,0.51
2014-4-16,60.4,48.0,41.3,45.6,36.8,29.3,95,68,37,30.40,29.89,19,3,20,0.00
2014-4-17,71.8,53.3,37.9,51.9,43.4,32.7,90,71,41,30.47,30.35,12,2,13,0.00
2014-4-18,66.2,55.0,46.5,56.2,49.5,41.9,97,82,65,30.38,30.10,13,2,13,0.43
2014-4-19,58.2,54.9,51.6,56.9,54.1,50.7,99,97,93,30.10,29.92,17,3,17,2.28
2014-4-20,57.2,54.2,49.6,56.2,52.6,48.3,99,94,78,30.10,30.00,16,4,17,0.42
2014-4-21,78.5,61.2,49.6,62.3,54.0,44.8,97,78,56,30.09,29.93,16,3,16,0.00
2014-4-22,74.5,63.4,51.5,62.6,58.4,50.8,100,85,61,29.93,29.69,10,2,12,0.00
2014-4-23,80.8,67.5,53.8,61.2,52.0,37.1,98,64,24,29.93,29.70,16,2,16,0.00
2014-4-24,73.6,58.6,45.7,54.7,47.3,40.5,93,69,34,30.11,29.93,10,1,10,0.00
2014-4-25,76.2,66.4,56.7,69.4,63.4,54.7,99,90,77,30.00,29.73,13,2,13,0.03
2014-4-26,81.5,65.7,57.4,64.8,55.5,43.6,98,74,29,30.02,29.83,9,2,10,0.00
2014-4-27,81.5,67.9,53.7,67.3,61.2,52.8,99,81,59,30.03,29.93,7,1,7,0.00
2014-4-28,79.8,70.4,61.7,71.7,67.2,59.9,99,90,74,29.98,29.87,6,1,7,0.00
2014-4-29,78.4,72.5,68.8,73.3,70.5,68.2,98,94,82,30.04,29.86,9,1,9,0.00
2014-4-30,75.5,71.0,66.4,72.2,69.8,65.5,99,96,88,30.10,29.92,13,2,16,0.55
2014-5-1,80.8,71.8,68.1,72.0,69.0,67.2,99,91,66,29.97,29.85,10,2,10,0.01
2014-5-2,68.8,64.4,59.8,67.4,59.9,56.8,96,86,67,29.94,29.87,6,1,10,0.00
2014-5-3,75.7,66.3,58.2,64.6,60.5,57.3,98,83,59,29.94,29.84,10,1,10,0.00
2014-5-4,85.3,67.7,52.7,62.3,55.8,47.3,95,69,31,30.00,29.88,13,2,13,0.00
2014-5-5,81.5,70.2,62.0,65.9,61.0,54.3,96,73,54,29.97,29.86,12,1,13,0.00
2014-5-6,92.9,74.9,62.1,67.3,63.7,58.1,96,72,34,29.95,29.82,10,1,10,0.00
2014-5-7,86.7,73.3,61.4,69.9,65.3,60.5,99,78,52,30.11,29.95,7,1,7,0.00
2014-5-8,85.5,74.5,65.8,73.6,68.7,63.0,94,83,64,30.21,30.10,15,2,16,0.00
2014-5-9,82.1,73.5,67.9,74.0,70.6,67.5,99,91,75,30.20,30.09,9,2,9,0.00
2014-5-10,82.8,74.4,69.8,74.5,71.4,69.2,99,91,73,30.16,30.06,16,2,16,0.00
2014-5-11,80.3,73.0,69.6,75.4,71.1,69.0,99,94,80,30.15,30.06,7,0,7,0.05
2014-5-12,85.5,75.9,70.5,76.2,72.5,70.2,99,90,71,30.19,30.11,9,1,9,0.00
2014-5-13,84.6,75.8,69.7,74.1,71.6,69.1,99,88,66,30.18,30.11,9,1,9,0.00
2014-5-14,86.5,75.5,65.8,72.2,69.6,65.2,99,83,58,30.18,30.09,9,1,9,0.00
2014-5-15,78.8,73.6,70.5,74.7,71.7,69.3,99,94,86,30.11,29.88,15,2,15,1.41
2014-5-16,77.4,69.1,57.0,72.2,62.8,51.0,99,83,48,30.04,29.80,9,1,10,2.28
2014-5-17,75.0,62.7,52.1,54.7,48.1,41.0,91,62,34,30.17,30.04,12,2,12,0.00
2014-5-18,69.7,62.2,53.6,59.9,56.7,52.4,97,83,59,30.20,30.12,4,0,6,0.00
2014-5-19,77.3,63.2,52.2,56.3,51.7,43.8,96,70,32,30.27,30.17,10,1,12,0.00
2014-5-20,77.2,64.4,49.0,60.0,53.7,48.2,98,72,42,30.29,30.15,9,1,9,0.00
2014-5-21,80.2,71.5,64.6,69.9,64.5,57.3,91,79,65,30.15,29.97,12,2,12,0.00
2014-5-22,91.3,77.8,68.1,70.4,67.2,62.1,94,73,40,29.98,29.87,12,2,12,0.00
2014-5-23,93.7,76.5,66.1,73.9,68.2,64.2,96,78,42,29.97,29.88,9,1,9,0.10
2014-5-24,85.3,71.6,61.2,69.4,60.7,54.1,95,71,36,30.11,29.92,12,2,12,0.00
2014-5-25,82.8,69.6,56.9,67.7,62.8,55.9,99,81,53,30.20,30.09,6,1,7,0.00
2014-5-26,83.7,73.8,65.0,71.5,68.0,63.6,98,83,62,30.23,30.13,9,2,10,0.00
2014-5-27,81.3,75.4,70.8,75.0,71.4,68.4,95,88,77,30.15,29.98,16,3,16,0.00
2014-5-28,86.7,76.6,68.4,78.0,73.0,67.3,99,89,71,30.04,29.93,10,2,10,0.47
2014-5-29,88.2,75.1,68.8,76.5,71.6,67.7,99,90,67,30.07,29.96,6,0,6,0.31
2014-5-30,82.8,73.4,67.6,74.5,70.8,67.3,100,92,70,30.08,30.00,3,0,6,0.11
2014-5-31,78.9,72.7,67.6,70.8,66.8,59.1,98,82,55,30.18,30.06,6,1,7,0.00
2014-6-1,83.8,68.8,57.2,61.7,56.7,48.3,95,68,34,30.29,30.18,10,1,10,0.00
2014-6-2,83.2,68.9,55.7,66.8,61.2,54.3,97,79,48,30.27,30.13,9,1,9,0.00
2014-6-3,83.5,72.4,60.1,70.6,66.2,58.9,98,82,61,30.14,29.94,10,2,10,0.00
2014-6-4,90.3,77.1,67.2,76.5,71.4,65.5,95,83,56,29.94,29.83,13,2,13,0.00
2014-6-5,83.5,76.8,70.5,76.8,73.2,69.7,99,89,79,29.86,29.74,16,4,16,0.51
2014-6-6,84.8,76.3,70.3,77.6,73.2,69.7,99,91,73,29.92,29.77,7,1,9,0.02
2014-6-7,89.3,75.6,69.0,73.8,68.9,64.9,98,81,47,29.99,29.88,10,1,12,0.00
2014-6-8,83.9,73.7,63.1,70.2,66.7,62.4,98,80,59,29.99,29.89,7,1,9,0.00
2014-6-9,85.1,78.3,73.4,79.6,75.3,67.1,98,91,81,29.92,29.86,7,2,7,0.05
2014-6-10,91.5,82.0,77.1,81.5,77.5,75.2,97,87,71,29.97,29.90,7,2,7,0.00
2014-6-11,90.3,81.1,74.9,79.7,76.6,73.0,98,87,70,29.98,29.87,9,1,9,0.00
2014-6-12,87.3,79.1,72.5,78.6,74.8,71.2,98,87,70,29.92,29.82,12,2,12,0.27
2014-6-13,86.2,79.3,72.4,78.2,74.5,70.0,96,86,72,29.89,29.82,12,2,12,0.00
2014-6-14,92.0,80.2,73.1,76.6,73.3,69.9,95,81,53,30.02,29.87,12,1,12,0.00
2014-6-15,87.2,77.8,70.7,77.4,74.1,69.8,98,89,71,30.13,30.01,10,1,10,0.77
2014-6-16,88.8,79.2,70.9,77.6,73.5,70.2,99,84,60,30.19,30.10,6,1,7,0.00
2014-6-17,89.5,79.5,69.9,77.9,73.3,68.3,98,82,64,30.19,30.11,6,1,7,0.00
2014-6-18,89.3,79.6,69.6,78.0,74.0,68.8,98,84,66,30.15,30.07,7,2,7,0.00
2014-6-19,90.3,81.8,72.8,78.5,75.2,71.6,97,81,65,30.14,30.01,10,2,10,0.00
2014-6-20,90.3,80.6,71.4,79.7,74.2,69.0,97,82,62,30.04,29.91,12,2,12,0.33
2014-6-21,86.9,77.2,71.7,79.7,74.8,70.8,99,93,76,29.96,29.79,12,1,12,0.62
2014-6-22,88.7,78.7,71.2,78.9,74.6,70.9,99,88,68,29.92,29.78,7,0,7,0.00
2014-6-23,88.5,78.5,71.1,76.1,73.2,70.5,98,85,64,30.09,29.92,12,1,16,0.00
2014-6-24,87.8,77.6,71.8,78.4,74.4,71.2,98,90,70,30.11,30.01,9,1,9,0.28
2014-6-25,89.0,80.3,74.6,79.9,76.4,73.7,98,88,70,30.03,29.92,12,2,12,0.00
2014-6-26,93.0,82.6,74.3,80.8,76.9,73.5,98,83,60,29.98,29.90,10,2,12,0.00
2014-6-27,91.3,79.8,74.0,79.5,75.8,72.8,98,88,64,30.05,29.94,9,0,9,0.05
2014-6-28,85.0,75.1,72.5,79.2,74.1,72.0,99,97,80,30.14,30.03,12,0,12,1.60
2014-6-29,91.5,76.7,66.2,75.8,70.3,65.9,99,82,52,30.16,30.09,9,1,9,0.00
2014-6-30,90.0,77.0,65.3,73.6,69.3,64.4,97,79,50,30.11,29.97,7,1,9,0.00
2014-7-1,89.9,79.6,69.3,76.8,73.4,68.6,99,82,58,30.00,29.92,7,1,7,0.00
2014-7-2,90.2,82.5,78.2,81.4,78.1,76.2,96,87,74,30.01,29.94,6,2,7,0.00
2014-7-3,81.3,75.6,70.3,78.2,74.2,69.5,99,95,86,29.99,29.55,25,3,29,3.07
2014-7-4,91.5,80.2,74.1,78.8,74.4,70.9,97,83,61,30.08,29.84,4,1,4,0.00
2014-7-5,86.2,76.3,68.3,73.8,66.0,58.7,98,72,47,30.23,30.07,13,1,13,0.00
2014-7-6,85.8,75.2,65.8,71.4,67.8,64.5,97,79,56,30.18,30.06,7,0,9,0.00
2014-7-7,89.2,78.8,70.1,77.5,74.1,69.2,98,86,65,30.07,29.99,9,1,9,0.00
2014-7-8,91.5,82.7,78.8,80.9,77.8,75.6,94,85,65,30.05,29.97,12,3,13,0.00
2014-7-9,90.6,83.0,79.7,80.5,78.3,76.5,94,86,69,30.04,29.97,10,3,10,0.00
2014-7-10,88.1,80.1,71.7,81.3,76.9,70.6,98,90,77,30.11,30.01,9,2,9,0.37
2014-7-11,79.5,73.8,69.9,76.9,73.0,69.6,99,98,90,30.18,30.04,6,0,6,0.67
2014-7-12,89.4,78.5,71.0,78.8,74.3,70.7,99,88,67,30.20,30.13,4,0,7,0.54
2014-7-13,90.3,80.3,72.5,79.3,75.4,71.8,98,86,64,30.14,30.03,4,1,6,0.00
2014-7-14,89.0,81.3,74.0,81.5,77.4,73.1,98,88,76,30.05,29.93,10,2,10,0.00
2014-7-15,88.5,80.0,72.0,82.0,76.9,70.5,99,91,74,29.95,29.81,13,2,15,0.35
2014-7-16,81.7,74.4,70.2,77.6,73.2,69.3,99,96,83,29.89,29.80,7,0,7,0.80
2014-7-17,93.1,77.3,69.7,75.1,71.4,67.2,99,84,44,30.06,29.87,10,1,12,0.00
2014-7-18,90.8,76.6,66.6,72.3,66.6,60.8,98,75,39,30.13,30.05,9,1,9,0.00
2014-7-19,87.0,76.2,66.2,76.9,70.6,63.4,92,83,68,30.12,30.04,4,0,4,0.00
2014-7-20,89.6,79.4,71.8,77.7,74.4,70.9,97,85,65,30.09,30.02,6,0,6,0.00
2014-7-21,88.6,78.6,73.1,78.9,75.5,72.3,98,91,68,30.10,30.02,7,0,7,0.07
2014-7-22,88.7,77.9,72.3,80.6,75.8,72.0,99,93,75,30.11,30.05,7,0,7,0.96
2014-7-23,90.2,80.5,73.3,80.2,76.2,72.7,99,87,65,30.08,29.93,7,1,7,0.00
2014-7-24,90.1,82.6,72.1,82.0,78.3,70.2,98,87,74,29.95,29.83,13,2,13,0.88
2014-7-25,84.5,76.3,72.1,78.3,74.6,71.5,99,94,80,30.03,29.91,7,0,10,0.72
2014-7-26,91.8,80.1,72.7,79.3,75.9,72.2,99,88,63,30.01,29.93,6,1,6,0.00
2014-7-27,93.0,83.9,78.0,81.5,79.3,75.7,98,87,63,29.98,29.84,10,2,10,0.00
2014-7-28,91.2,82.3,74.3,82.7,77.9,72.1,95,87,71,29.85,29.73,10,2,10,0.01
2014-7-29,91.8,77.5,68.2,73.1,69.6,64.9,97,78,45,29.96,29.79,6,0,6,0.00
2014-7-30,87.8,76.8,68.3,73.5,69.7,67.5,98,80,56,30.04,29.93,9,1,9,0.00
2014-7-31,86.8,77.3,69.0,74.9,71.7,67.7,97,84,62,30.08,30.02,7,1,7,0.02
2014-8-1,78.7,76.1,72.9,76.2,74.3,71.8,99,94,87,30.07,29.98,10,1,10,2.67
2014-8-2,75.2,74.1,72.9,74.9,73.7,72.3,99,99,96,30.07,29.98,10,0,12,2.19
2014-8-3,75.1,72.7,70.9,74.7,72.4,70.5,100,99,97,30.11,30.01,4,0,4,1.38
2014-8-4,79.2,74.8,71.8,77.1,74.1,71.5,100,98,91,30.07,29.99,0,0,0,0.15
2014-8-5,89.0,76.8,73.1,79.4,74.7,72.5,99,94,69,30.01,29.94,6,0,6,0.03
2014-8-6,92.0,80.0,70.5,80.7,76.0,70.2,100,88,63,29.98,29.90,6,1,6,0.01
2014-8-7,95.1,79.2,70.3,79.6,74.2,69.5,99,86,56,29.97,29.88,15,0,15,1.57
2014-8-8,88.8,77.9,71.9,79.2,74.0,71.5,99,89,66,30.06,29.96,7,1,7,0.00
2014-8-9,86.8,76.4,72.7,77.1,74.4,72.0,99,94,69,30.07,29.99,7,0,7,0.09
2014-8-10,85.8,77.3,72.9,78.5,74.6,72.6,99,92,75,30.04,29.98,12,1,12,0.00
2014-8-11,89.5,79.2,72.0,79.4,75.0,71.4,99,88,68,30.01,29.91,13,1,15,0.00
2014-8-12,90.8,80.4,72.3,81.1,76.8,71.8,99,90,70,29.91,29.80,10,1,10,0.01
2014-8-13,89.5,79.5,74.2,79.8,74.9,69.0,97,86,67,29.93,29.80,6,1,6,0.00
2014-8-14,88.5,75.3,65.6,69.5,66.6,62.9,95,76,45,30.03,29.93,6,1,6,0.00
2014-8-15,90.8,76.3,64.5,71.9,68.1,63.8,99,78,47,30.03,29.95,7,0,9,0.00
2014-8-16,85.5,76.0,68.9,79.3,73.5,67.7,98,92,77,30.04,29.96,6,0,6,0.17
2014-8-17,92.2,81.2,72.2,81.6,76.9,71.9,99,88,60,30.00,29.93,7,1,7,0.00
2014-8-18,89.4,81.4,74.6,81.4,77.2,71.8,98,88,72,29.96,29.79,17,2,17,0.00
2014-8-19,90.0,80.2,74.4,79.5,75.3,71.8,98,86,67,29.86,29.78,12,1,12,1.37
2014-8-20,90.4,78.1,72.7,80.9,75.8,72.4,100,93,70,30.01,29.85,7,0,7,0.39
2014-8-21,94.6,78.6,71.9,83.4,76.4,70.4,100,94,63,30.07,29.96,7,0,12,1.10
2014-8-22,96.6,81.6,72.6,82.3,76.9,72.2,100,87,56,30.02,29.92,6,0,6,0.00
2014-8-23,93.5,79.2,73.6,84.9,76.9,72.1,98,93,75,29.94,29.84,10,0,10,0.89
2014-8-24,86.2,76.4,68.3,74.6,70.7,63.3,99,83,63,30.03,29.87,19,1,19,0.01
2014-8-25,83.7,72.4,62.8,74.2,67.9,61.3,96,86,67,30.04,29.98,12,1,12,0.01
2014-8-26,86.5,74.2,64.8,72.2,67.9,63.6,97,82,60,30.05,29.99,7,1,9,0.00
2014-8-27,90.1,75.4,65.8,73.6,68.0,63.0,94,79,57,30.02,29.92,9,1,9,0.00
2014-8-28,89.9,76.2,63.0,74.2,68.2,61.8,97,78,51,30.02,29.95,6,1,7,0.00
2014-8-29,92.3,79.6,69.4,77.1,73.0,68.2,98,82,55,30.13,30.01,9,1,9,0.00
2014-8-30,90.0,79.9,72.0,80.3,75.7,71.3,99,87,70,30.19,30.11,9,0,9,0.00
2014-8-31,91.8,81.5,73.7,80.1,76.4,72.8,98,85,66,30.17,30.06,9,0,9,0.00
2014-9-1,91.1,82.2,74.5,81.3,77.8,73.6,98,87,71,30.12,30.04,7,1,7,0.00
2014-9-2,91.5,83.6,75.8,81.6,78.5,74.9,98,85,70,30.08,29.97,6,1,7,0.00
2014-9-3,90.3,82.2,75.0,80.4,77.1,74.1,97,85,68,30.10,29.99,6,1,7,0.00
2014-9-4,91.5,82.4,75.9,79.0,76.6,74.7,97,83,62,30.16,30.09,6,0,6,0.00
2014-9-5,93.3,80.6,74.8,80.1,76.2,73.8,98,87,63,30.18,30.07,6,1,7,0.03
2014-9-6,83.8,78.9,74.0,78.4,75.6,72.5,99,90,81,30.08,29.94,7,1,9,0.41
2014-9-7,90.0,79.7,73.7,79.8,75.9,72.8,99,89,69,30.04,29.95,7,1,7,0.26
2014-9-8,78.8,75.9,72.8,76.0,74.6,71.9,99,96,88,30.07,29.97,9,2,13,0.85
2014-9-9,76.2,72.8,70.6,74.1,71.3,70.3,99,95,87,30.07,30.01,6,0,7,0.00
2014-9-10,86.3,75.4,70.5,76.6,72.3,69.8,98,91,64,30.10,30.01,4,0,4,0.00
2014-9-11,87.1,77.4,68.2,78.3,73.9,67.6,99,90,73,30.06,29.96,6,1,6,0.00
2014-9-12,88.8,79.5,73.3,79.7,76.2,72.0,98,90,73,30.05,29.96,6,1,6,0.04
2014-9-13,89.7,78.5,72.0,79.9,75.9,71.7,99,92,69,30.10,30.02,4,0,6,0.04
2014-9-14,76.8,71.9,66.2,75.5,70.0,65.6,99,94,83,30.19,30.09,6,0,6,0.00
2014-9-15,75.0,70.9,68.5,72.3,69.1,67.0,98,94,86,30.19,30.09,3,0,4,0.09
2014-9-16,89.5,75.6,69.0,76.8,72.4,68.4,99,91,63,30.10,29.92,7,0,7,0.00
2014-9-17,88.5,73.6,64.7,74.6,69.1,64.1,98,87,61,29.95,29.84,6,1,7,0.06
2014-9-18,83.5,71.8,66.0,73.8,68.8,65.3,99,91,66,30.02,29.87,6,0,9,0.42
2014-9-19,81.0,71.3,64.2,71.8,67.6,63.3,98,89,72,30.13,29.99,13,1,13,0.07
2014-9-20,75.5,70.1,65.0,70.9,67.3,62.9,98,91,84,30.13,29.85,7,1,9,0.07
2014-9-21,84.3,74.5,67.7,73.6,68.7,64.9,98,84,54,29.91,29.78,9,2,10,0.03
2014-9-22,81.0,73.1,66.3,73.0,67.6,65.7,98,84,62,30.08,29.88,9,1,9,0.23
2014-9-23,67.0,63.2,58.6,65.6,62.2,58.0,98,97,92,30.19,30.06,10,2,12,0.14
2014-9-24,70.5,63.5,58.5,67.6,62.6,57.6,99,97,89,30.20,30.12,9,2,10,0.24
2014-9-25,76.1,70.0,66.0,74.1,69.2,65.7,99,98,93,30.16,30.09,7,0,7,0.02
2014-9-26,72.8,67.8,64.4,70.3,66.5,63.6,99,96,90,30.12,30.07,9,1,9,0.02
2014-9-27,79.8,70.9,64.5,72.1,67.3,62.5,95,89,74,30.14,30.08,6,1,6,0.02
2014-9-28,85.3,73.5,65.9,74.7,69.1,64.4,97,87,68,30.12,30.02,6,0,9,0.00
2014-9-29,75.2,68.1,61.8,70.6,66.6,61.1,99,95,83,30.04,29.92,4,0,4,0.35
2014-9-30,84.2,70.4,61.9,70.0,65.9,61.6,99,87,60,29.92,29.80,6,0,6,0.00
2014-10-1,84.2,70.1,61.8,70.9,65.7,61.5,99,87,58,30.02,29.87,3,0,6,0.00
2014-10-2,83.6,71.4,61.9,73.0,67.9,61.3,100,89,67,30.11,30.01,4,0,6,0.00
2014-10-3,84.0,74.3,63.7,74.1,70.2,63.1,100,88,70,30.06,29.80,7,1,7,0.00
2014-10-4,79.3,71.6,57.1,74.9,62.1,42.9,98,74,47,29.88,29.67,13,2,13,0.02
2014-10-5,68.7,55.4,43.9,50.1,44.5,38.8,93,70,38,30.05,29.88,6,1,7,0.00
2014-10-6,74.9,60.9,45.5,59.8,51.2,44.4,98,73,46,30.14,30.04,7,1,7,0.00
2014-10-7,79.8,71.5,61.8,69.5,65.0,59.0,93,80,63,30.15,30.04,7,1,7,0.00
2014-10-8,82.2,75.2,70.7,74.2,71.3,68.4,97,88,72,30.07,29.96,7,2,12,0.00
2014-10-9,82.7,69.5,60.0,69.8,61.1,54.6,97,77,40,30.14,30.01,10,1,10,0.00
2014-10-10,82.4,70.5,56.9,71.2,65.2,56.3,99,85,61,30.13,30.03,4,0,6,0.00
2014-10-11,83.6,75.9,71.1,75.6,72.8,70.5,98,91,75,30.04,29.94,7,1,9,0.00
2014-10-12,72.8,69.3,64.3,71.3,67.4,63.4,98,94,87,30.18,30.00,6,0,6,0.00
2014-10-13,85.8,73.3,64.7,76.3,70.4,64.1,99,91,71,30.22,30.12,9,1,9,0.00
2014-10-14,78.5,75.8,73.3,76.0,74.1,71.5,98,94,88,30.12,29.94,9,1,10,0.39
2014-10-15,76.8,68.2,59.1,74.7,67.2,58.5,99,97,93,29.94,29.83,16,1,16,1.01
2014-10-16,74.4,61.7,54.0,61.2,56.9,53.3,99,86,53,29.87,29.79,9,0,9,0.00
2014-10-17,74.2,63.2,51.7,63.4,57.8,50.8,99,84,59,29.95,29.84,7,1,7,0.00
2014-10-18,79.2,67.9,59.9,69.6,62.0,54.3,96,82,60,29.86,29.73,7,1,7,0.00
2014-10-19,68.2,58.6,48.3,54.4,49.8,47.1,96,74,51,30.13,29.86,13,2,13,0.00
2014-10-20,74.5,58.6,44.6,62.1,53.6,43.8,98,85,56,30.16,29.98,4,0,4,0.00
2014-10-21,76.7,63.9,54.0,63.2,58.5,53.4,99,84,53,29.98,29.83,6,1,6,0.00
2014-10-22,66.3,57.9,50.6,56.8,48.8,44.8,90,73,52,30.03,29.87,13,2,13,0.00
2014-10-23,67.6,55.0,45.5,52.5,47.2,43.0,93,77,48,30.04,29.92,12,1,12,0.00
2014-10-24,71.0,56.3,47.3,56.2,50.4,45.1,97,82,55,30.05,29.95,4,0,4,0.00
2014-10-25,74.3,57.5,44.5,57.2,50.6,43.8,99,81,40,30.02,29.91,6,0,6,0.00
2014-10-26,80.2,63.4,50.3,65.4,55.6,46.7,97,77,48,29.96,29.84,7,1,9,0.00
2014-10-27,82.7,63.5,53.3,62.1,56.6,52.6,99,81,44,30.12,29.96,4,0,4,0.00
2014-10-28,76.3,65.0,53.1,71.9,62.7,52.1,100,92,82,30.17,30.08,6,1,6,0.00
2014-10-29,78.3,71.2,66.8,70.4,68.0,65.5,99,90,72,30.09,29.92,10,2,10,0.00
2014-10-30,70.7,61.8,53.4,68.0,57.9,52.5,99,88,63,29.99,29.91,9,1,10,0.44
2014-10-31,67.8,56.1,47.2,53.6,50.3,46.1,98,83,51,29.93,29.75,7,0,7,0.00
2014-11-1,52.4,48.3,43.1,50.3,46.9,42.4,99,95,88,29.91,29.60,19,2,19,1.42
2014-11-2,52.4,44.4,36.5,44.7,35.8,30.3,91,74,47,30.32,29.91,17,3,20,0.00
2014-11-3,61.7,45.3,32.1,45.0,35.6,29.1,95,73,31,30.45,30.31,6,1,6,0.00
2014-11-4,66.6,50.5,36.7,51.6,43.8,35.4,97,81,42,30.41,30.28,3,0,4,0.00
2014-11-5,72.6,61.6,49.7,66.3,59.1,48.9,99,92,75,30.32,30.19,4,0,4,0.00
2014-11-6,72.2,66.1,59.1,66.8,63.5,58.3,99,92,81,30.19,29.78,13,2,13,0.00
2014-11-7,62.6,53.2,41.6,59.0,42.8,38.3,96,70,48,30.05,29.79,16,2,17,0.00
2014-11-8,63.2,51.1,39.2,53.3,46.1,36.7,97,84,59,30.09,29.96,4,0,4,0.00
2014-11-9,61.2,53.6,46.8,53.2,49.5,46.0,97,87,70,30.03,29.92,4,0,4,0.00
2014-11-10,61.3,53.7,44.7,54.9,48.6,42.9,97,84,69,30.09,29.95,7,1,7,0.00
2014-11-11,72.8,64.1,58.2,68.3,61.8,55.0,96,92,85,29.95,29.84,10,1,10,0.00
2014-11-12,75.0,64.1,55.7,64.8,60.1,54.8,98,88,58,30.00,29.89,7,1,9,0.00
2014-11-13,70.2,62.3,48.9,66.3,59.9,47.8,99,92,81,30.02,29.92,4,1,10,0.03
2014-11-14,48.9,43.1,32.5,47.8,38.9,29.3,97,85,76,30.29,29.97,12,2,15,0.00
2014-11-15,48.3,36.9,28.5,32.9,27.4,23.6,90,71,42,30.44,30.28,9,1,9,0.00
2014-11-16,58.9,47.0,34.7,52.8,43.2,27.3,99,87,73,30.35,30.08,7,1,7,0.46
2014-11-17,70.9,60.2,46.9,69.0,59.2,46.6,100,97,83,30.08,29.70,16,2,16,0.00
2014-11-18,57.3,40.7,27.0,52.1,29.1,19.9,87,65,43,30.35,29.82,16,3,16,0.00
2014-11-19,44.0,33.7,22.6,38.5,24.0,13.4,92,71,32,30.46,30.29,9,1,9,0.00
2014-11-20,57.8,47.4,30.8,47.7,36.6,25.3,93,68,39,30.29,30.10,12,2,13,0.00
2014-11-21,57.7,46.5,33.5,41.1,33.0,23.5,88,62,33,30.53,30.20,10,1,10,0.00
2014-11-22,59.4,45.0,30.8,51.4,39.1,23.0,98,80,64,30.56,30.29,4,0,6,0.00
2014-11-23,68.0,58.7,49.6,67.7,58.2,49.0,99,98,97,30.29,29.79,16,2,19,1.57
2014-11-24,67.6,65.0,63.0,67.6,64.8,62.7,100,100,98,29.98,29.77,15,3,15,0.03
2014-11-25,65.0,63.0,60.1,64.4,62.7,59.8,100,99,98,30.10,29.89,9,0,9,0.48
2014-11-26,66.7,53.9,40.4,66.7,53.2,39.9,100,98,91,30.12,29.71,23,2,23,0.30
2014-11-27,53.9,44.9,37.1,46.6,39.5,34.6,100,83,59,30.25,30.02,23,2,25,0.00
2014-11-28,45.7,36.9,29.2,34.6,29.4,25.3,96,77,47,30.37,30.25,16,2,16,0.00
2014-11-29,53.0,40.5,28.5,46.9,35.6,27.7,99,85,55,30.39,30.29,6,0,6,0.00
2014-11-30,64.2,52.2,36.9,56.1,48.7,36.3,100,89,64,30.39,30.29,9,1,9,0.00
2014-12-1,66.6,55.3,44.1,59.7,53.0,43.5,100,92,77,30.42,30.31,6,0,6,0.00
2014-12-2,62.7,53.8,47.9,59.6,52.3,47.3,100,95,83,30.39,30.31,7,1,7,0.00
2014-12-3,65.6,54.5,51.0,61.9,53.5,50.7,99,97,85,30.31,30.20,3,0,3,0.00
2014-12-4,62.4,54.7,48.0,57.1,52.7,46.6,100,93,81,30.38,30.24,7,0,7,0.00
2014-12-5,62.7,52.0,42.4,56.8,48.9,41.3,96,89,78,30.44,30.30,9,1,9,0.00
2014-12-6,66.3,57.4,51.9,63.3,56.5,51.5,99,97,89,30.31,30.03,7,1,7,0.16
2014-12-7,60.6,49.6,41.6,60.3,44.9,35.9,99,84,72,30.33,30.02,25,3,26,0.01
2014-12-8,56.3,45.8,37.9,47.7,40.6,33.7,97,82,69,30.32,30.06,16,3,16,0.07
2014-12-9,48.0,43.8,40.4,44.2,41.9,39.8,98,93,84,30.06,29.89,19,4,19,0.06
2014-12-10,53.9,44.4,35.9,42.9,38.1,30.8,98,80,51,30.03,29.94,20,2,20,0.00
2014-12-11,51.4,38.5,29.0,34.6,30.1,26.8,95,74,46,30.15,30.02,12,1,12,0.00
2014-12-12,58.0,40.8,29.1,33.9,27.4,21.8,96,64,26,30.26,30.12,10,2,17,0.00
2014-12-13,59.7,42.9,30.7,40.8,31.9,24.5,95,70,27,30.18,30.03,10,1,10,0.00
2014-12-14,56.5,42.4,32.7,39.0,34.0,29.7,95,74,46,30.07,29.99,10,1,12,0.00
2014-12-15,58.7,43.5,31.1,47.7,38.9,30.1,98,86,51,30.14,30.05,4,0,4,0.00
2014-12-16,63.0,51.3,36.7,55.7,48.3,36.2,100,90,72,30.10,29.92,16,2,16,0.00
2014-12-17,61.4,50.8,41.1,49.7,45.4,39.9,96,83,54,30.15,30.00,9,1,10,0.00
2014-12-18,56.2,43.6,35.1,43.2,38.3,33.4,99,84,44,30.19,30.07,9,0,9,0.00
2014-12-19,58.0,43.9,34.2,42.4,37.2,31.7,98,81,40,30.20,30.08,6,0,6,0.00
2014-12-20,46.1,43.9,40.1,45.3,42.5,39.3,98,95,86,30.26,30.18,4,0,4,0.28
2014-12-21,49.8,43.3,38.5,44.1,40.2,36.4,97,89,76,30.28,30.12,9,1,9,0.02
2014-12-22,46.9,44.8,42.5,46.2,44.3,42.2,99,98,96,30.13,29.97,12,2,13,0.12
2014-12-23,56.9,50.6,44.3,56.7,50.4,44.0,100,99,99,30.05,29.96,7,0,7,0.85
2014-12-24,69.3,64.0,57.0,69.3,63.9,56.9,100,100,99,29.95,29.74,17,2,17,5.09
2014-12-25,61.7,53.4,41.4,61.6,49.2,40.8,100,86,63,30.25,29.76,12,2,13,0.00
2014-12-26,60.6,45.8,37.0,50.4,42.6,36.7,99,90,63,30.36,30.24,4,0,4,0.00
2014-12-27,59.7,47.0,35.5,51.9,43.8,35.1,100,90,64,30.38,30.21,4,0,4,0.01
2014-12-28,68.0,58.3,47.9,62.8,56.0,47.1,98,93,78,30.21,30.02,10,1,10,0.00
2014-12-29,61.2,57.0,51.4,60.8,56.6,51.1,100,99,98,30.12,30.00,7,0,7,0.20
2014-12-30,51.4,44.0,39.9,51.0,42.8,37.6,99,96,91,30.42,30.10,13,2,13,0.00
2014-12-31,48.2,38.0,30.4,37.6,32.2,27.7,98,82,50,30.48,30.36,13,1,13,0.00
2015-1-1,51.6,39.0,27.8,40.6,33.6,27.0,99,84,42,30.38,30.27,4,0,6,0.00
2015-1-2,59.5,52.4,40.4,51.9,47.1,39.5,98,83,58,30.38,30.27,4,0,4,0.09